Terminal Aerodrome Forecast
Issued by NWS Wilmington, NC

Home | Current Version | Previous Version | Text Only | Print | Product List | Glossary On
Versions: 1 2 3 4 5 6 7 8 9 10 11 12 13 14 15 16 17 18 19 20 21 22 23 24 25 26 27 28 29 30
000
FTUS42 KILM 150500 RRA
TAFILM
TAF
KILM 150541Z 1506/1606 02003KT P6SM SCT020 OVC035
     FM150900 03003KT P6SM SCT015 BKN025
     FM151400 07005KT P6SM SCT020 BKN040
     FM152000 13006KT P6SM SCT025 BKN100=

USA.gov is the U.S. government's official web portal to all federal, state and local government web resources and services.